sensor_id;sensor_type;location;lat;lon;timestamp;temperature;humidity
61912;DHT22;49973;52.084;5.412;2023-07-29T00:00:07;18.30;99.90
61912;DHT22;49973;52.084;5.412;2023-07-29T00:02:40;18.20;99.90
61912;DHT22;49973;52.084;5.412;2023-07-29T00:05:09;18.20;99.90
61912;DHT22;49973;52.084;5.412;2023-07-29T00:07:38;18.20;99.90
61912;DHT22;49973;52.084;5.412;2023-07-29T00:10:08;18.20;99.90
61912;DHT22;49973;52.084;5.412;2023-07-29T00:12:38;18.20;99.90
61912;DHT22;49973;52.084;5.412;2023-07-29T00:15:08;18.20;99.90
61912;DHT22;49973;52.084;5.412;2023-07-29T00:17:37;18.20;99.90
61912;DHT22;49973;52.084;5.412;2023-07-29T00:20:06;18.10;99.90
61912;DHT22;49973;52.084;5.412;2023-07-29T00:22:36;18.10;99.90
61912;DHT22;49973;52.084;5.412;2023-07-29T00:25:05;18.10;99.90
61912;DHT22;49973;52.084;5.412;2023-07-29T00:27:34;18.10;99.90
61912;DHT22;49973;52.084;5.412;2023-07-29T00:30:06;18.00;99.90
61912;DHT22;49973;52.084;5.412;2023-07-29T00:32:36;18.00;99.90
61912;DHT22;49973;52.084;5.412;2023-07-29T00:35:06;18.00;99.90
61912;DHT22;49973;52.084;5.412;2023-07-29T00:37:37;18.00;99.90
61912;DHT22;49973;52.084;5.412;2023-07-29T00:40:12;18.00;99.90
61912;DHT22;49973;52.084;5.412;2023-07-29T00:42:42;17.90;99.90
61912;DHT22;49973;52.084;5.412;2023-07-29T00:45:13;17.90;99.90
61912;DHT22;49973;52.084;5.412;2023-07-29T00:47:42;17.90;99.90
61912;DHT22;49973;52.084;5.412;2023-07-29T00:50:13;17.90;99.90
61912;DHT22;49973;52.084;5.412;2023-07-29T00:52:42;17.90;99.90
61912;DHT22;49973;52.084;5.412;2023-07-29T00:55:11;18.00;99.90
61912;DHT22;49973;52.084;5.412;2023-07-29T00:57:40;18.00;99.90
61912;DHT22;49973;52.084;5.412;2023-07-29T01:00:10;17.90;99.90
61912;DHT22;49973;52.084;5.412;2023-07-29T01:02:41;18.00;99.90
61912;DHT22;49973;52.084;5.412;2023-07-29T01:05:12;18.00;99.90
61912;DHT22;49973;52.084;5.412;2023-07-29T01:07:49;18.00;99.90
61912;DHT22;49973;52.084;5.412;2023-07-29T01:10:26;18.00;99.90
61912;DHT22;49973;52.084;5.412;2023-07-29T01:13:05;18.00;99.90
61912;DHT22;49973;52.084;5.412;2023-07-29T01:15:41;17.90;99.90
61912;DHT22;49973;52.084;5.412;2023-07-29T01:18:22;17.90;99.90
61912;DHT22;49973;52.084;5.412;2023-07-29T01:20:53;17.90;99.90
61912;DHT22;49973;52.084;5.412;2023-07-29T01:23:29;17.80;99.90
61912;DHT22;49973;52.084;5.412;2023-07-29T01:25:59;17.80;99.90
61912;DHT22;49973;52.084;5.412;2023-07-29T01:28:28;17.80;99.90
61912;DHT22;49973;52.084;5.412;2023-07-29T01:31:01;17.80;99.90
61912;DHT22;49973;52.084;5.412;2023-07-29T01:33:35;17.80;99.90
61912;DHT22;49973;52.084;5.412;2023-07-29T01:36:15;17.80;99.90
61912;DHT22;49973;52.084;5.412;2023-07-29T01:38:49;17.80;99.90
61912;DHT22;49973;52.084;5.412;2023-07-29T01:41:20;17.80;99.90
61912;DHT22;49973;52.084;5.412;2023-07-29T01:43:50;17.80;99.90
61912;DHT22;49973;52.084;5.412;2023-07-29T01:46:19;17.80;99.90
61912;DHT22;49973;52.084;5.412;2023-07-29T01:48:48;17.80;99.90
61912;DHT22;49973;52.084;5.412;2023-07-29T01:51:17;17.80;99.90
61912;DHT22;49973;52.084;5.412;2023-07-29T01:53:47;17.80;99.90
61912;DHT22;49973;52.084;5.412;2023-07-29T01:56:16;17.80;99.90
61912;DHT22;49973;52.084;5.412;2023-07-29T01:58:52;17.80;99.90
61912;DHT22;49973;52.084;5.412;2023-07-29T02:01:21;17.80;99.90
61912;DHT22;49973;52.084;5.412;2023-07-29T02:03:50;17.80;99.90
61912;DHT22;49973;52.084;5.412;2023-07-29T02:06:23;17.80;99.90
61912;DHT22;49973;52.084;5.412;2023-07-29T02:08:54;17.80;99.90
61912;DHT22;49973;52.084;5.412;2023-07-29T02:11:23;17.80;99.90
61912;DHT22;49973;52.084;5.412;2023-07-29T02:13:56;17.80;99.90
61912;DHT22;49973;52.084;5.412;2023-07-29T02:16:25;17.80;99.90
61912;DHT22;49973;52.084;5.412;2023-07-29T02:18:53;17.80;99.90
61912;DHT22;49973;52.084;5.412;2023-07-29T02:21:23;17.80;99.90
61912;DHT22;49973;52.084;5.412;2023-07-29T02:23:53;17.80;99.90
61912;DHT22;49973;52.084;5.412;2023-07-29T02:26:23;17.80;99.90
61912;DHT22;49973;52.084;5.412;2023-07-29T02:28:51;17.80;99.90
61912;DHT22;49973;52.084;5.412;2023-07-29T02:31:21;17.80;99.90
61912;DHT22;49973;52.084;5.412;2023-07-29T02:33:51;17.80;99.90
61912;DHT22;49973;52.084;5.412;2023-07-29T02:36:20;18.00;99.90
61912;DHT22;49973;52.084;5.412;2023-07-29T02:38:49;17.80;99.90
61912;DHT22;49973;52.084;5.412;2023-07-29T02:41:19;17.80;99.90
61912;DHT22;49973;52.084;5.412;2023-07-29T02:43:49;17.80;99.90
61912;DHT22;49973;52.084;5.412;2023-07-29T02:46:18;17.70;99.90
61912;DHT22;49973;52.084;5.412;2023-07-29T02:48:47;17.70;99.90
61912;DHT22;49973;52.084;5.412;2023-07-29T02:51:16;17.80;99.90
61912;DHT22;49973;52.084;5.412;2023-07-29T02:53:45;17.70;99.90
61912;DHT22;49973;52.084;5.412;2023-07-29T02:56:14;17.70;99.90
61912;DHT22;49973;52.084;5.412;2023-07-29T02:58:44;17.70;99.90
61912;DHT22;49973;52.084;5.412;2023-07-29T03:01:13;17.70;99.90
61912;DHT22;49973;52.084;5.412;2023-07-29T03:03:43;17.70;99.90
61912;DHT22;49973;52.084;5.412;2023-07-29T03:06:13;17.70;99.90
61912;DHT22;49973;52.084;5.412;2023-07-29T03:08:42;17.70;99.90
61912;DHT22;49973;52.084;5.412;2023-07-29T03:11:13;17.70;99.90
61912;DHT22;49973;52.084;5.412;2023-07-29T03:13:43;17.70;99.90
61912;DHT22;49973;52.084;5.412;2023-07-29T03:16:14;17.70;99.90
61912;DHT22;49973;52.084;5.412;2023-07-29T03:18:50;17.80;99.90
61912;DHT22;49973;52.084;5.412;2023-07-29T03:21:19;17.70;99.90
61912;DHT22;49973;52.084;5.412;2023-07-29T03:23:48;17.70;99.90
61912;DHT22;49973;52.084;5.412;2023-07-29T03:26:17;17.70;99.90
61912;DHT22;49973;52.084;5.412;2023-07-29T03:28:47;17.70;99.90
61912;DHT22;49973;52.084;5.412;2023-07-29T03:31:16;17.60;99.90
61912;DHT22;49973;52.084;5.412;2023-07-29T03:33:46;17.60;99.90
61912;DHT22;49973;52.084;5.412;2023-07-29T03:36:15;17.60;99.90
61912;DHT22;49973;52.084;5.412;2023-07-29T03:38:44;17.60;99.90
61912;DHT22;49973;52.084;5.412;2023-07-29T03:41:13;17.60;99.90
61912;DHT22;49973;52.084;5.412;2023-07-29T03:43:42;17.60;99.90
61912;DHT22;49973;52.084;5.412;2023-07-29T03:46:12;17.60;99.90
61912;DHT22;49973;52.084;5.412;2023-07-29T03:48:45;17.60;99.90
61912;DHT22;49973;52.084;5.412;2023-07-29T03:51:14;17.60;99.90
61912;DHT22;49973;52.084;5.412;2023-07-29T03:53:43;17.60;99.90
61912;DHT22;49973;52.084;5.412;2023-07-29T03:56:12;17.60;99.90
61912;DHT22;49973;52.084;5.412;2023-07-29T03:58:41;17.60;99.90
61912;DHT22;49973;52.084;5.412;2023-07-29T04:01:12;17.60;99.90
61912;DHT22;49973;52.084;5.412;2023-07-29T04:03:41;17.60;99.90
61912;DHT22;49973;52.084;5.412;2023-07-29T04:06:10;17.60;99.90
61912;DHT22;49973;52.084;5.412;2023-07-29T04:08:39;17.50;99.90
61912;DHT22;49973;52.084;5.412;2023-07-29T04:11:09;17.60;99.90
61912;DHT22;49973;52.084;5.412;2023-07-29T04:13:37;17.50;99.90
61912;DHT22;49973;52.084;5.412;2023-07-29T04:16:06;17.50;99.90
61912;DHT22;49973;52.084;5.412;2023-07-29T04:18:37;17.50;99.90
61912;DHT22;49973;52.084;5.412;2023-07-29T04:21:06;17.50;99.90
61912;DHT22;49973;52.084;5.412;2023-07-29T04:23:35;17.50;99.90
61912;DHT22;49973;52.084;5.412;2023-07-29T04:26:04;17.50;99.90
61912;DHT22;49973;52.084;5.412;2023-07-29T04:28:32;17.40;99.90
61912;DHT22;49973;52.084;5.412;2023-07-29T04:31:01;17.40;99.90
61912;DHT22;49973;52.084;5.412;2023-07-29T04:33:30;17.40;99.90
61912;DHT22;49973;52.084;5.412;2023-07-29T04:36:05;17.50;99.90
61912;DHT22;49973;52.084;5.412;2023-07-29T04:38:34;17.50;99.90
61912;DHT22;49973;52.084;5.412;2023-07-29T04:41:02;17.40;99.90
61912;DHT22;49973;52.084;5.412;2023-07-29T04:43:34;17.40;99.90
61912;DHT22;49973;52.084;5.412;2023-07-29T04:46:06;17.40;99.90
61912;DHT22;49973;52.084;5.412;2023-07-29T04:48:36;17.40;99.90
61912;DHT22;49973;52.084;5.412;2023-07-29T04:51:06;17.40;99.90
61912;DHT22;49973;52.084;5.412;2023-07-29T04:53:35;17.50;99.90
61912;DHT22;49973;52.084;5.412;2023-07-29T04:56:05;17.30;99.90
61912;DHT22;49973;52.084;5.412;2023-07-29T04:58:33;17.40;99.90
61912;DHT22;49973;52.084;5.412;2023-07-29T05:01:03;17.40;99.90
61912;DHT22;49973;52.084;5.412;2023-07-29T05:03:33;17.40;99.90
61912;DHT22;49973;52.084;5.412;2023-07-29T05:06:02;17.40;99.90
61912;DHT22;49973;52.084;5.412;2023-07-29T05:08:32;17.50;99.90
61912;DHT22;49973;52.084;5.412;2023-07-29T05:11:01;17.50;99.90
61912;DHT22;49973;52.084;5.412;2023-07-29T05:13:30;17.50;99.90
61912;DHT22;49973;52.084;5.412;2023-07-29T05:15:59;17.50;99.90
61912;DHT22;49973;52.084;5.412;2023-07-29T05:18:28;17.60;99.90
61912;DHT22;49973;52.084;5.412;2023-07-29T05:20:56;17.70;99.90
61912;DHT22;49973;52.084;5.412;2023-07-29T05:23:25;17.60;99.90
61912;DHT22;49973;52.084;5.412;2023-07-29T05:25:55;17.60;99.90
61912;DHT22;49973;52.084;5.412;2023-07-29T05:28:24;17.70;99.90
61912;DHT22;49973;52.084;5.412;2023-07-29T05:30:53;17.70;99.90
61912;DHT22;49973;52.084;5.412;2023-07-29T05:33:22;17.70;99.90
61912;DHT22;49973;52.084;5.412;2023-07-29T05:35:51;17.70;99.90
61912;DHT22;49973;52.084;5.412;2023-07-29T05:38:20;17.80;99.90
61912;DHT22;49973;52.084;5.412;2023-07-29T05:40:49;17.80;99.90
61912;DHT22;49973;52.084;5.412;2023-07-29T05:43:19;17.80;99.90
61912;DHT22;49973;52.084;5.412;2023-07-29T05:45:48;17.90;99.90
61912;DHT22;49973;52.084;5.412;2023-07-29T05:48:19;17.90;99.90
61912;DHT22;49973;52.084;5.412;2023-07-29T05:50:50;18.00;99.90
61912;DHT22;49973;52.084;5.412;2023-07-29T05:53:18;18.00;99.90
61912;DHT22;49973;52.084;5.412;2023-07-29T05:55:47;18.10;99.90
61912;DHT22;49973;52.084;5.412;2023-07-29T05:58:22;18.10;99.90
61912;DHT22;49973;52.084;5.412;2023-07-29T06:00:51;18.20;99.90
61912;DHT22;49973;52.084;5.412;2023-07-29T06:03:20;18.20;99.90
61912;DHT22;49973;52.084;5.412;2023-07-29T06:05:51;18.30;99.90
61912;DHT22;49973;52.084;5.412;2023-07-29T06:08:21;18.30;99.90
61912;DHT22;49973;52.084;5.412;2023-07-29T06:10:50;18.30;99.90
61912;DHT22;49973;52.084;5.412;2023-07-29T06:13:19;18.40;99.90
61912;DHT22;49973;52.084;5.412;2023-07-29T06:15:50;18.50;99.90
61912;DHT22;49973;52.084;5.412;2023-07-29T06:18:19;18.50;99.90
61912;DHT22;49973;52.084;5.412;2023-07-29T06:20:49;18.60;99.90
61912;DHT22;49973;52.084;5.412;2023-07-29T06:23:18;18.80;99.90
61912;DHT22;49973;52.084;5.412;2023-07-29T06:25:46;19.00;99.90
61912;DHT22;49973;52.084;5.412;2023-07-29T06:28:15;19.20;99.90
61912;DHT22;49973;52.084;5.412;2023-07-29T06:30:44;19.50;99.90
61912;DHT22;49973;52.084;5.412;2023-07-29T06:33:14;19.70;99.90
61912;DHT22;49973;52.084;5.412;2023-07-29T06:35:43;19.90;99.90
61912;DHT22;49973;52.084;5.412;2023-07-29T06:38:12;19.90;99.90
61912;DHT22;49973;52.084;5.412;2023-07-29T06:40:41;20.00;99.90
61912;DHT22;49973;52.084;5.412;2023-07-29T06:43:10;20.00;99.90
61912;DHT22;49973;52.084;5.412;2023-07-29T06:45:38;20.00;99.90
61912;DHT22;49973;52.084;5.412;2023-07-29T06:48:07;20.10;99.90
61912;DHT22;49973;52.084;5.412;2023-07-29T06:50:38;20.10;99.90
61912;DHT22;49973;52.084;5.412;2023-07-29T06:53:06;20.10;99.90
61912;DHT22;49973;52.084;5.412;2023-07-29T06:55:35;20.00;99.90
61912;DHT22;49973;52.084;5.412;2023-07-29T06:58:04;20.00;99.90
61912;DHT22;49973;52.084;5.412;2023-07-29T07:00:33;20.00;99.90
61912;DHT22;49973;52.084;5.412;2023-07-29T07:03:02;20.00;99.90
61912;DHT22;49973;52.084;5.412;2023-07-29T07:05:31;20.00;99.90
61912;DHT22;49973;52.084;5.412;2023-07-29T07:08:01;20.00;99.90
61912;DHT22;49973;52.084;5.412;2023-07-29T07:10:30;20.00;99.90
61912;DHT22;49973;52.084;5.412;2023-07-29T07:12:59;20.00;99.90
61912;DHT22;49973;52.084;5.412;2023-07-29T07:15:28;20.00;99.90
61912;DHT22;49973;52.084;5.412;2023-07-29T07:17:56;20.00;99.90
61912;DHT22;49973;52.084;5.412;2023-07-29T07:20:25;20.00;99.90
61912;DHT22;49973;52.084;5.412;2023-07-29T07:22:54;20.00;99.90
61912;DHT22;49973;52.084;5.412;2023-07-29T07:25:24;20.00;99.90
61912;DHT22;49973;52.084;5.412;2023-07-29T07:27:53;20.00;99.90
61912;DHT22;49973;52.084;5.412;2023-07-29T07:30:22;20.00;99.90
61912;DHT22;49973;52.084;5.412;2023-07-29T07:32:51;20.00;99.90
61912;DHT22;49973;52.084;5.412;2023-07-29T07:35:20;20.00;99.90
61912;DHT22;49973;52.084;5.412;2023-07-29T07:37:49;20.00;99.90
61912;DHT22;49973;52.084;5.412;2023-07-29T07:40:17;20.00;99.90
61912;DHT22;49973;52.084;5.412;2023-07-29T07:42:47;20.00;99.90
61912;DHT22;49973;52.084;5.412;2023-07-29T07:45:16;20.00;99.90
61912;DHT22;49973;52.084;5.412;2023-07-29T07:47:45;20.10;99.90
61912;DHT22;49973;52.084;5.412;2023-07-29T07:50:15;20.10;99.90
61912;DHT22;49973;52.084;5.412;2023-07-29T07:52:44;20.20;99.90
61912;DHT22;49973;52.084;5.412;2023-07-29T07:55:13;20.20;99.90
61912;DHT22;49973;52.084;5.412;2023-07-29T07:57:41;20.30;99.90
61912;DHT22;49973;52.084;5.412;2023-07-29T08:00:13;20.40;99.90
61912;DHT22;49973;52.084;5.412;2023-07-29T08:02:44;20.50;99.90
61912;DHT22;49973;52.084;5.412;2023-07-29T08:05:12;20.60;99.90
61912;DHT22;49973;52.084;5.412;2023-07-29T08:07:41;20.60;99.90
61912;DHT22;49973;52.084;5.412;2023-07-29T08:10:10;20.60;99.90
61912;DHT22;49973;52.084;5.412;2023-07-29T08:12:39;20.60;99.90
61912;DHT22;49973;52.084;5.412;2023-07-29T08:15:08;20.80;99.90
61912;DHT22;49973;52.084;5.412;2023-07-29T08:17:38;21.10;99.90
61912;DHT22;49973;52.084;5.412;2023-07-29T08:20:08;21.30;99.90
61912;DHT22;49973;52.084;5.412;2023-07-29T08:22:37;21.50;99.90
61912;DHT22;49973;52.084;5.412;2023-07-29T08:25:07;21.70;99.90
61912;DHT22;49973;52.084;5.412;2023-07-29T08:27:36;21.90;99.90
61912;DHT22;49973;52.084;5.412;2023-07-29T08:30:06;22.10;99.90
61912;DHT22;49973;52.084;5.412;2023-07-29T08:32:34;22.20;99.90
61912;DHT22;49973;52.084;5.412;2023-07-29T08:35:05;22.20;99.90
61912;DHT22;49973;52.084;5.412;2023-07-29T08:37:34;22.10;99.90
61912;DHT22;49973;52.084;5.412;2023-07-29T08:40:04;21.90;99.90
61912;DHT22;49973;52.084;5.412;2023-07-29T08:42:33;21.80;99.90
61912;DHT22;49973;52.084;5.412;2023-07-29T08:45:07;21.70;99.90
61912;DHT22;49973;52.084;5.412;2023-07-29T08:47:36;21.60;99.90
61912;DHT22;49973;52.084;5.412;2023-07-29T08:50:07;21.60;99.90
61912;DHT22;49973;52.084;5.412;2023-07-29T08:52:41;21.50;99.90
61912;DHT22;49973;52.084;5.412;2023-07-29T08:55:12;21.40;99.90
61912;DHT22;49973;52.084;5.412;2023-07-29T08:57:41;21.40;99.90
61912;DHT22;49973;52.084;5.412;2023-07-29T09:00:10;21.30;99.90
61912;DHT22;49973;52.084;5.412;2023-07-29T09:02:39;21.30;99.90
61912;DHT22;49973;52.084;5.412;2023-07-29T09:05:10;21.30;99.90
61912;DHT22;49973;52.084;5.412;2023-07-29T09:07:39;21.30;99.90
61912;DHT22;49973;52.084;5.412;2023-07-29T09:10:09;21.30;99.90
61912;DHT22;49973;52.084;5.412;2023-07-29T09:12:39;21.40;99.90
61912;DHT22;49973;52.084;5.412;2023-07-29T09:15:08;21.70;99.90
61912;DHT22;49973;52.084;5.412;2023-07-29T09:17:40;22.00;99.90
61912;DHT22;49973;52.084;5.412;2023-07-29T09:20:11;22.10;99.90
61912;DHT22;49973;52.084;5.412;2023-07-29T09:22:41;22.00;99.90
61912;DHT22;49973;52.084;5.412;2023-07-29T09:25:12;22.00;99.90
61912;DHT22;49973;52.084;5.412;2023-07-29T09:27:43;22.00;99.90
61912;DHT22;49973;52.084;5.412;2023-07-29T09:30:16;22.10;99.90
61912;DHT22;49973;52.084;5.412;2023-07-29T09:32:45;22.20;99.90
61912;DHT22;49973;52.084;5.412;2023-07-29T09:35:16;22.20;99.90
61912;DHT22;49973;52.084;5.412;2023-07-29T09:37:45;22.20;99.90
61912;DHT22;49973;52.084;5.412;2023-07-29T09:40:20;22.20;99.90
61912;DHT22;49973;52.084;5.412;2023-07-29T09:42:50;22.20;99.90
61912;DHT22;49973;52.084;5.412;2023-07-29T09:45:20;22.20;99.90
61912;DHT22;49973;52.084;5.412;2023-07-29T09:47:49;22.10;99.90
61912;DHT22;49973;52.084;5.412;2023-07-29T09:50:23;22.00;99.90
61912;DHT22;49973;52.084;5.412;2023-07-29T09:52:53;21.90;99.90
61912;DHT22;49973;52.084;5.412;2023-07-29T09:55:23;21.90;99.90
61912;DHT22;49973;52.084;5.412;2023-07-29T09:57:54;21.70;99.90
61912;DHT22;49973;52.084;5.412;2023-07-29T10:00:23;21.70;99.90
61912;DHT22;49973;52.084;5.412;2023-07-29T10:02:53;21.60;99.90
61912;DHT22;49973;52.084;5.412;2023-07-29T10:05:26;21.60;99.90
61912;DHT22;49973;52.084;5.412;2023-07-29T10:07:55;21.60;99.90
61912;DHT22;49973;52.084;5.412;2023-07-29T10:10:26;21.70;99.90
61912;DHT22;49973;52.084;5.412;2023-07-29T10:12:58;21.70;99.90
61912;DHT22;49973;52.084;5.412;2023-07-29T10:15:27;21.80;99.90
61912;DHT22;49973;52.084;5.412;2023-07-29T10:17:57;21.90;99.90
61912;DHT22;49973;52.084;5.412;2023-07-29T10:20:29;21.90;99.90
61912;DHT22;49973;52.084;5.412;2023-07-29T10:22:59;21.90;99.90
61912;DHT22;49973;52.084;5.412;2023-07-29T10:25:38;22.00;99.90
61912;DHT22;49973;52.084;5.412;2023-07-29T10:28:12;22.00;99.90
61912;DHT22;49973;52.084;5.412;2023-07-29T10:30:41;22.00;99.90
61912;DHT22;49973;52.084;5.412;2023-07-29T10:33:10;21.90;99.90
61912;DHT22;49973;52.084;5.412;2023-07-29T10:35:40;21.90;99.90
61912;DHT22;49973;52.084;5.412;2023-07-29T10:38:09;21.90;99.90
61912;DHT22;49973;52.084;5.412;2023-07-29T10:40:50;22.00;99.90
61912;DHT22;49973;52.084;5.412;2023-07-29T10:43:24;22.10;99.90
61912;DHT22;49973;52.084;5.412;2023-07-29T10:45:55;22.10;99.90
61912;DHT22;49973;52.084;5.412;2023-07-29T10:48:44;22.10;99.90
61912;DHT22;49973;52.084;5.412;2023-07-29T10:51:25;22.00;99.90
61912;DHT22;49973;52.084;5.412;2023-07-29T10:53:58;21.90;99.90
61912;DHT22;49973;52.084;5.412;2023-07-29T10:56:29;21.80;99.90
61912;DHT22;49973;52.084;5.412;2023-07-29T10:59:02;21.70;99.90
61912;DHT22;49973;52.084;5.412;2023-07-29T11:01:31;21.40;99.90
61912;DHT22;49973;52.084;5.412;2023-07-29T11:04:25;21.00;99.90
61912;DHT22;49973;52.084;5.412;2023-07-29T11:07:25;20.70;99.90
61912;DHT22;49973;52.084;5.412;2023-07-29T11:10:00;20.50;99.90
61912;DHT22;49973;52.084;5.412;2023-07-29T11:12:40;20.40;99.90
61912;DHT22;49973;52.084;5.412;2023-07-29T11:15:18;20.30;99.90
61912;DHT22;49973;52.084;5.412;2023-07-29T11:17:48;20.30;99.90
61912;DHT22;49973;52.084;5.412;2023-07-29T11:20:19;20.30;99.90
61912;DHT22;49973;52.084;5.412;2023-07-29T11:22:50;20.20;99.90
61912;DHT22;49973;52.084;5.412;2023-07-29T11:25:22;20.20;99.90
61912;DHT22;49973;52.084;5.412;2023-07-29T11:27:51;20.20;99.90
61912;DHT22;49973;52.084;5.412;2023-07-29T11:30:21;20.20;99.90
61912;DHT22;49973;52.084;5.412;2023-07-29T11:32:50;20.10;99.90
61912;DHT22;49973;52.084;5.412;2023-07-29T11:35:19;20.10;99.90
61912;DHT22;49973;52.084;5.412;2023-07-29T11:37:51;20.00;99.90
61912;DHT22;49973;52.084;5.412;2023-07-29T11:40:21;20.00;99.90
61912;DHT22;49973;52.084;5.412;2023-07-29T11:42:51;19.90;99.90
61912;DHT22;49973;52.084;5.412;2023-07-29T11:45:22;19.80;99.90
61912;DHT22;49973;52.084;5.412;2023-07-29T11:48:02;19.70;99.90
61912;DHT22;49973;52.084;5.412;2023-07-29T11:50:31;19.70;99.90
61912;DHT22;49973;52.084;5.412;2023-07-29T11:53:01;19.50;99.90
61912;DHT22;49973;52.084;5.412;2023-07-29T11:55:30;19.50;99.90
61912;DHT22;49973;52.084;5.412;2023-07-29T11:57:59;19.40;99.90
61912;DHT22;49973;52.084;5.412;2023-07-29T12:00:29;19.40;99.90
61912;DHT22;49973;52.084;5.412;2023-07-29T12:02:59;19.40;99.90
61912;DHT22;49973;52.084;5.412;2023-07-29T12:05:29;19.40;99.90
61912;DHT22;49973;52.084;5.412;2023-07-29T12:08:01;19.40;99.90
61912;DHT22;49973;52.084;5.412;2023-07-29T12:10:30;19.50;99.90
61912;DHT22;49973;52.084;5.412;2023-07-29T12:13:02;19.50;99.90
61912;DHT22;49973;52.084;5.412;2023-07-29T12:15:31;19.50;99.90
61912;DHT22;49973;52.084;5.412;2023-07-29T12:18:00;19.70;99.90
61912;DHT22;49973;52.084;5.412;2023-07-29T12:20:30;20.00;99.90
61912;DHT22;49973;52.084;5.412;2023-07-29T12:23:00;20.10;99.90
61912;DHT22;49973;52.084;5.412;2023-07-29T12:25:33;20.60;99.90
61912;DHT22;49973;52.084;5.412;2023-07-29T12:28:04;21.00;99.90
61912;DHT22;49973;52.084;5.412;2023-07-29T12:30:41;21.30;99.90
61912;DHT22;49973;52.084;5.412;2023-07-29T12:33:10;21.70;99.90
61912;DHT22;49973;52.084;5.412;2023-07-29T12:35:39;21.80;99.90
61912;DHT22;49973;52.084;5.412;2023-07-29T12:38:09;22.00;99.90
61912;DHT22;49973;52.084;5.412;2023-07-29T12:40:38;22.10;99.90
61912;DHT22;49973;52.084;5.412;2023-07-29T12:43:09;22.10;99.90
61912;DHT22;49973;52.084;5.412;2023-07-29T12:45:38;22.10;99.90
61912;DHT22;49973;52.084;5.412;2023-07-29T12:48:10;22.00;99.90
61912;DHT22;49973;52.084;5.412;2023-07-29T12:50:39;22.00;99.90
61912;DHT22;49973;52.084;5.412;2023-07-29T12:53:09;21.90;99.90
61912;DHT22;49973;52.084;5.412;2023-07-29T12:55:38;21.90;99.90
61912;DHT22;49973;52.084;5.412;2023-07-29T12:58:07;22.10;99.90
61912;DHT22;49973;52.084;5.412;2023-07-29T13:00:36;22.10;99.90
61912;DHT22;49973;52.084;5.412;2023-07-29T13:03:05;22.30;99.90
61912;DHT22;49973;52.084;5.412;2023-07-29T13:05:34;22.50;99.90
61912;DHT22;49973;52.084;5.412;2023-07-29T13:08:04;22.70;99.90
61912;DHT22;49973;52.084;5.412;2023-07-29T13:10:34;22.80;99.90
61912;DHT22;49973;52.084;5.412;2023-07-29T13:13:05;22.90;99.90
61912;DHT22;49973;52.084;5.412;2023-07-29T13:15:34;22.90;99.90
61912;DHT22;49973;52.084;5.412;2023-07-29T13:18:03;22.80;99.90
61912;DHT22;49973;52.084;5.412;2023-07-29T13:20:32;22.70;99.90
61912;DHT22;49973;52.084;5.412;2023-07-29T13:23:01;22.60;99.90
61912;DHT22;49973;52.084;5.412;2023-07-29T13:25:30;22.50;99.90
61912;DHT22;49973;52.084;5.412;2023-07-29T13:28:00;22.50;99.90
61912;DHT22;49973;52.084;5.412;2023-07-29T13:30:29;22.40;99.90
61912;DHT22;49973;52.084;5.412;2023-07-29T13:33:01;22.50;99.90
61912;DHT22;49973;52.084;5.412;2023-07-29T13:35:30;22.50;99.90
61912;DHT22;49973;52.084;5.412;2023-07-29T13:37:59;22.60;99.90
61912;DHT22;49973;52.084;5.412;2023-07-29T13:40:28;22.60;99.90
61912;DHT22;49973;52.084;5.412;2023-07-29T13:42:57;22.70;99.90
61912;DHT22;49973;52.084;5.412;2023-07-29T13:45:29;22.70;99.90
61912;DHT22;49973;52.084;5.412;2023-07-29T13:48:00;22.80;99.90
61912;DHT22;49973;52.084;5.412;2023-07-29T13:50:29;22.80;99.90
61912;DHT22;49973;52.084;5.412;2023-07-29T13:52:57;22.80;99.90
61912;DHT22;49973;52.084;5.412;2023-07-29T13:55:26;22.80;99.90
61912;DHT22;49973;52.084;5.412;2023-07-29T13:58:01;22.80;99.90
61912;DHT22;49973;52.084;5.412;2023-07-29T14:00:31;22.80;99.90
61912;DHT22;49973;52.084;5.412;2023-07-29T14:03:00;22.90;99.90
61912;DHT22;49973;52.084;5.412;2023-07-29T14:05:30;22.80;99.90
61912;DHT22;49973;52.084;5.412;2023-07-29T14:07:58;22.80;99.90
61912;DHT22;49973;52.084;5.412;2023-07-29T14:10:27;22.80;99.90
61912;DHT22;49973;52.084;5.412;2023-07-29T14:12:56;22.80;99.90
61912;DHT22;49973;52.084;5.412;2023-07-29T14:15:25;22.90;99.90
61912;DHT22;49973;52.084;5.412;2023-07-29T14:17:57;22.90;99.90
61912;DHT22;49973;52.084;5.412;2023-07-29T14:20:26;22.90;99.90
61912;DHT22;49973;52.084;5.412;2023-07-29T14:22:54;23.00;99.90
61912;DHT22;49973;52.084;5.412;2023-07-29T14:25:23;23.00;99.90
61912;DHT22;49973;52.084;5.412;2023-07-29T14:27:52;23.00;99.90
61912;DHT22;49973;52.084;5.412;2023-07-29T14:30:21;23.10;99.90
61912;DHT22;49973;52.084;5.412;2023-07-29T14:32:50;23.10;99.90
61912;DHT22;49973;52.084;5.412;2023-07-29T14:35:20;23.10;99.90
61912;DHT22;49973;52.084;5.412;2023-07-29T14:37:49;23.10;99.90
61912;DHT22;49973;52.084;5.412;2023-07-29T14:40:18;23.00;99.90
61912;DHT22;49973;52.084;5.412;2023-07-29T14:42:46;23.00;99.90
61912;DHT22;49973;52.084;5.412;2023-07-29T14:45:15;23.10;99.90
61912;DHT22;49973;52.084;5.412;2023-07-29T14:47:44;23.20;99.90
61912;DHT22;49973;52.084;5.412;2023-07-29T14:50:13;23.20;99.90
61912;DHT22;49973;52.084;5.412;2023-07-29T14:52:43;23.30;99.90
61912;DHT22;49973;52.084;5.412;2023-07-29T14:55:12;23.40;99.90
61912;DHT22;49973;52.084;5.412;2023-07-29T14:57:40;23.40;99.90
61912;DHT22;49973;52.084;5.412;2023-07-29T15:00:11;23.30;99.90
61912;DHT22;49973;52.084;5.412;2023-07-29T15:02:40;23.20;99.90
61912;DHT22;49973;52.084;5.412;2023-07-29T15:05:09;23.10;99.90
61912;DHT22;49973;52.084;5.412;2023-07-29T15:07:38;23.00;99.90
61912;DHT22;49973;52.084;5.412;2023-07-29T15:10:09;22.80;99.90
61912;DHT22;49973;52.084;5.412;2023-07-29T15:12:37;22.70;99.90
61912;DHT22;49973;52.084;5.412;2023-07-29T15:15:07;22.70;99.90
61912;DHT22;49973;52.084;5.412;2023-07-29T15:17:36;22.60;99.90
61912;DHT22;49973;52.084;5.412;2023-07-29T15:20:06;22.70;99.90
61912;DHT22;49973;52.084;5.412;2023-07-29T15:22:35;22.80;99.90
61912;DHT22;49973;52.084;5.412;2023-07-29T15:25:04;22.90;99.90
61912;DHT22;49973;52.084;5.412;2023-07-29T15:27:34;23.10;99.90
61912;DHT22;49973;52.084;5.412;2023-07-29T15:30:04;23.20;99.90
61912;DHT22;49973;52.084;5.412;2023-07-29T15:32:33;23.20;99.90
61912;DHT22;49973;52.084;5.412;2023-07-29T15:35:02;23.20;99.90
61912;DHT22;49973;52.084;5.412;2023-07-29T15:37:31;23.10;99.90
61912;DHT22;49973;52.084;5.412;2023-07-29T15:40:00;23.00;99.90
61912;DHT22;49973;52.084;5.412;2023-07-29T15:42:28;22.90;99.90
61912;DHT22;49973;52.084;5.412;2023-07-29T15:44:59;22.80;99.90
61912;DHT22;49973;52.084;5.412;2023-07-29T15:47:27;22.70;99.90